Riverton, Washington
Current Conditions -  °F | °C
As of 8:24 PM on Tuesday 27 Jan 2015 (Local Time) from KSEA Reporting Station
Haze Haze  
Wind Chill: 45°   Ceiling: 1200
Heat Index: 48°   Visibility: 3mi
Dew Point: 46°   Wind: 7mph
Humidity: 93%   Direction: 290°WNW
Pressure: 30.2"   Gusts: NA
Location:  47.4488°N, 122.28°W
Report Text: KSEA 280424Z 29006KT 3SM BR SCT002 BKN012 OVC036 09/08 A3020 RMK AO2
Loading
Personal Weather Stations






























Interactive Weather Map New forecast layout! Learn more

10-Day Weather Forecast

Advertisements
Track Severe Weather on mobile